createdAt,value
2022-11-07T00:00:53.271Z,3.83
2022-11-07T00:03:23.301Z,4.67
2022-11-07T00:05:55.032Z,3.90
2022-11-07T00:08:31.907Z,3.00
2022-11-07T00:11:07.331Z,3.80
2022-11-07T00:13:37.832Z,5.30
2022-11-07T00:16:11.806Z,2.80
2022-11-07T00:18:41.950Z,4.87
2022-11-07T00:21:13.584Z,3.20
2022-11-07T00:23:44.741Z,4.10
2022-11-07T00:26:18.677Z,3.53
2022-11-07T00:28:49.413Z,4.43
2022-11-07T00:31:20.993Z,4.03
2022-11-07T00:33:51.054Z,2.70
2022-11-07T00:36:23.662Z,3.50
2022-11-07T00:38:54.047Z,4.10
2022-11-07T00:41:27.069Z,3.40
2022-11-07T00:43:57.356Z,4.23
2022-11-07T00:46:27.684Z,4.47
2022-11-07T00:48:57.759Z,3.80
2022-11-07T00:51:31.098Z,3.70
2022-11-07T00:54:01.195Z,5.80
2022-11-07T00:56:33.942Z,3.40
2022-11-07T00:59:03.983Z,3.17
2022-11-07T01:01:36.607Z,3.20
2022-11-07T01:04:19.479Z,3.80
2022-11-07T01:06:50.177Z,3.53
2022-11-07T01:09:23.066Z,4.83
2022-11-07T01:11:55.746Z,2.83
2022-11-07T01:14:25.866Z,2.80
2022-11-07T01:16:55.985Z,3.90
2022-11-07T01:19:26.132Z,4.97
2022-11-07T01:21:56.530Z,3.40
2022-11-07T01:24:26.580Z,3.90
2022-11-07T01:26:59.193Z,3.07
2022-11-07T01:29:29.685Z,3.60
2022-11-07T01:31:59.750Z,3.43
2022-11-07T01:34:29.842Z,4.80
2022-11-07T01:36:59.838Z,2.63
2022-11-07T01:39:29.884Z,4.00
2022-11-07T01:42:02.557Z,3.10
2022-11-07T01:44:57.381Z,3.80
2022-11-07T01:47:32.934Z,2.70
2022-11-07T01:50:04.718Z,4.40
2022-11-07T01:52:38.991Z,3.00
2022-11-07T01:55:15.756Z,4.60
2022-11-07T01:57:54.054Z,8.67
2022-11-07T02:00:26.688Z,3.23
2022-11-07T02:03:03.974Z,4.47
2022-11-07T02:05:40.546Z,3.50
2022-11-07T02:08:13.392Z,2.70
2022-11-07T02:10:45.179Z,4.20
2022-11-07T02:13:28.411Z,4.10
2022-11-07T02:15:59.399Z,3.10
2022-11-07T02:18:32.278Z,2.80
2022-11-07T02:21:11.387Z,4.47
2022-11-07T02:23:52.000Z,3.07
2022-11-07T02:26:26.516Z,3.10
2022-11-07T02:29:00.148Z,3.20
2022-11-07T02:31:30.233Z,3.50
2022-11-07T02:34:00.214Z,5.20
2022-11-07T02:36:30.641Z,3.83
2022-11-07T02:39:02.679Z,3.87
2022-11-07T02:41:37.988Z,3.80
2022-11-07T02:44:13.961Z,4.10
2022-11-07T02:46:44.470Z,3.37
2022-11-07T02:49:14.566Z,4.70
2022-11-07T02:51:44.581Z,3.50
2022-11-07T02:54:14.705Z,3.77
2022-11-07T02:56:47.353Z,3.73
2022-11-07T02:59:17.327Z,2.90
2022-11-07T03:01:47.501Z,2.90
2022-11-07T03:04:17.621Z,3.87
2022-11-07T03:06:47.715Z,3.17
2022-11-07T03:09:18.007Z,6.17
2022-11-07T03:11:50.633Z,4.00
2022-11-07T03:14:20.755Z,2.60
2022-11-07T03:16:50.819Z,3.10
2022-11-07T03:19:20.891Z,3.80
2022-11-07T03:21:52.954Z,3.53
2022-11-07T03:24:23.014Z,4.47
2022-11-07T03:26:55.648Z,4.73
2022-11-07T03:29:25.724Z,5.37
2022-11-07T03:31:55.899Z,4.50
2022-11-07T03:34:26.497Z,5.47
2022-11-07T03:36:56.523Z,3.43
2022-11-07T03:39:26.513Z,4.80
2022-11-07T03:41:59.239Z,6.30
2022-11-07T03:44:29.275Z,3.80
2022-11-07T03:46:59.220Z,3.83
2022-11-07T03:49:29.370Z,3.17
2022-11-07T03:52:00.011Z,7.50
2022-11-07T03:54:30.016Z,3.67
2022-11-07T03:57:02.709Z,5.93
2022-11-07T03:59:32.736Z,4.57
2022-11-07T04:02:02.976Z,3.73
2022-11-07T04:04:33.095Z,4.80
2022-11-07T04:07:03.073Z,3.93
2022-11-07T04:09:33.055Z,4.40
2022-11-07T04:12:18.126Z,4.67
2022-11-07T04:15:00.969Z,3.97
2022-11-07T04:17:33.082Z,4.90
2022-11-07T04:20:03.144Z,4.30
2022-11-07T04:22:33.239Z,5.47
2022-11-07T04:25:03.305Z,3.70
2022-11-07T04:27:46.950Z,3.27
2022-11-07T04:30:23.855Z,4.93
2022-11-07T04:32:56.247Z,7.93
2022-11-07T04:35:29.217Z,3.90
2022-11-07T04:37:59.447Z,4.83
2022-11-07T04:40:30.382Z,4.43
2022-11-07T04:43:08.874Z,12.80
2022-11-07T04:45:39.472Z,3.87
2022-11-07T04:48:12.756Z,3.60
2022-11-07T04:50:43.806Z,3.33
2022-11-07T04:53:16.612Z,6.70
2022-11-07T04:55:47.470Z,7.20
2022-11-07T04:58:20.087Z,3.87
2022-11-07T05:00:50.102Z,5.27
2022-11-07T05:03:20.301Z,4.83
2022-11-07T05:05:50.424Z,6.93
2022-11-07T05:08:20.457Z,6.00
2022-11-07T05:10:50.457Z,6.00
2022-11-07T05:13:23.276Z,4.47
2022-11-07T05:15:53.799Z,6.53
2022-11-07T05:18:25.161Z,6.57
2022-11-07T05:20:55.169Z,7.20
2022-11-07T05:23:27.880Z,6.83
2022-11-07T05:25:58.377Z,4.30
2022-11-07T05:28:39.261Z,6.00
2022-11-07T05:31:11.899Z,5.53
2022-11-07T05:33:41.894Z,4.20
2022-11-07T05:36:14.327Z,4.90
2022-11-07T05:38:46.480Z,4.63
2022-11-07T05:41:19.560Z,6.90
2022-11-07T05:43:52.367Z,5.83
2022-11-07T05:46:22.382Z,7.07
2022-11-07T05:48:59.614Z,7.40
2022-11-07T05:51:30.836Z,7.13
2022-11-07T05:54:00.908Z,7.70
2022-11-07T05:56:31.212Z,13.87
2022-11-07T05:59:04.275Z,11.30
2022-11-07T06:01:34.589Z,6.40
2022-11-07T06:04:06.665Z,7.70
2022-11-07T06:06:36.853Z,7.87
2022-11-07T06:09:07.214Z,9.03
2022-11-07T06:11:37.217Z,8.83
2022-11-07T06:14:10.109Z,7.13
2022-11-07T06:16:40.363Z,5.17
2022-11-07T06:19:10.412Z,8.10
2022-11-07T06:21:40.749Z,9.40
2022-11-07T06:24:15.385Z,9.57
2022-11-07T06:26:45.582Z,9.43
2022-11-07T06:29:18.167Z,5.40
2022-11-07T06:31:48.310Z,5.50
2022-11-07T06:34:18.294Z,6.20
2022-11-07T06:36:58.643Z,3.27
2022-11-07T06:39:31.765Z,5.67
2022-11-07T06:42:01.805Z,5.03
2022-11-07T06:44:34.433Z,5.30
2022-11-07T06:47:04.489Z,4.80
2022-11-07T06:49:34.509Z,7.17
2022-11-07T06:52:05.204Z,3.60
2022-11-07T06:54:35.352Z,4.50
2022-11-07T06:57:05.454Z,5.53
2022-11-07T06:59:38.292Z,5.33
2022-11-07T07:02:08.609Z,6.37
2022-11-07T07:04:39.211Z,8.20
2022-11-07T07:07:09.308Z,6.70
2022-11-07T07:09:39.336Z,7.43
2022-11-07T07:12:10.228Z,10.53
2022-11-07T07:14:42.932Z,9.80
2022-11-07T07:17:13.080Z,11.03
2022-11-07T07:19:43.144Z,8.33
2022-11-07T07:22:15.658Z,7.90
2022-11-07T07:24:46.046Z,8.37
2022-11-07T07:27:16.173Z,5.17
2022-11-07T07:29:48.918Z,10.03
2022-11-07T07:32:19.040Z,10.63
2022-11-07T07:34:49.133Z,6.57
2022-11-07T07:37:19.179Z,4.87
2022-11-07T07:39:49.283Z,9.83
2022-11-07T07:42:19.337Z,6.60
2022-11-07T07:44:51.990Z,4.50
2022-11-07T07:47:22.274Z,5.87
2022-11-07T07:49:52.311Z,9.63
2022-11-07T07:52:23.027Z,6.00
2022-11-07T07:54:54.361Z,10.30
2022-11-07T07:57:24.567Z,6.47
2022-11-07T07:59:57.256Z,5.70
2022-11-07T08:02:27.340Z,6.70
2022-11-07T08:04:57.869Z,7.43
2022-11-07T08:07:28.219Z,4.87
2022-11-07T08:10:02.031Z,5.20
2022-11-07T08:12:32.458Z,5.80
2022-11-07T08:15:05.183Z,5.13
2022-11-07T08:17:37.368Z,7.20
2022-11-07T08:20:11.006Z,7.80
2022-11-07T08:22:41.897Z,6.60
2022-11-07T08:25:14.492Z,9.00
2022-11-07T08:27:44.559Z,4.77
2022-11-07T08:30:18.235Z,10.53
2022-11-07T08:32:48.488Z,7.57
2022-11-07T08:35:18.908Z,4.80
2022-11-07T08:37:48.961Z,4.80
2022-11-07T08:40:19.115Z,10.90
2022-11-07T08:42:49.251Z,5.60
2022-11-07T08:45:22.011Z,4.40
2022-11-07T08:47:52.014Z,8.83
2022-11-07T08:50:22.167Z,8.43
2022-11-07T08:52:52.452Z,7.53
2022-11-07T08:55:22.479Z,6.83
2022-11-07T08:57:52.603Z,5.33
2022-11-07T09:00:25.617Z,5.63
2022-11-07T09:05:45.900Z,5.50
2022-11-07T09:08:15.982Z,6.40
2022-11-07T09:10:46.251Z,3.63
2022-11-07T09:13:17.041Z,6.07
2022-11-07T09:15:51.747Z,7.57
2022-11-07T09:18:22.622Z,6.47
2022-11-07T09:20:52.980Z,6.27
2022-11-07T09:23:23.698Z,8.23
2022-11-07T09:25:53.727Z,4.80
2022-11-07T09:28:23.860Z,6.23
2022-11-07T09:31:00.833Z,10.60
2022-11-07T09:33:31.332Z,6.10
2022-11-07T09:36:02.912Z,5.27
2022-11-07T09:38:33.909Z,7.23
2022-11-07T09:41:13.267Z,7.20
2022-11-07T09:44:16.900Z,6.00
2022-11-07T09:47:00.460Z,5.03
2022-11-07T09:49:39.200Z,14.73
2022-11-07T09:52:19.927Z,6.80
2022-11-07T09:54:56.781Z,6.30
2022-11-07T09:57:36.582Z,6.60
2022-11-07T10:00:11.433Z,12.03
2022-11-07T10:02:48.133Z,9.97
2022-11-07T10:05:21.648Z,5.13
2022-11-07T10:08:06.312Z,4.73
2022-11-07T10:10:47.047Z,6.43
2022-11-07T10:13:56.122Z,5.90
2022-11-07T10:16:43.420Z,6.73
2022-11-07T10:19:36.797Z,13.83
2022-11-07T10:22:26.732Z,9.93
2022-11-07T10:25:24.239Z,7.07
2022-11-07T10:28:11.375Z,4.67
2022-11-07T10:30:42.145Z,6.53
2022-11-07T10:33:30.567Z,11.00
2022-11-07T10:36:14.150Z,11.37
2022-11-07T10:38:46.124Z,7.70
2022-11-07T10:41:20.058Z,7.13
2022-11-07T10:43:55.343Z,6.83
2022-11-07T10:46:36.619Z,9.93
2022-11-07T10:49:19.919Z,6.80
2022-11-07T10:51:53.698Z,7.27
2022-11-07T10:54:29.981Z,10.93
2022-11-07T10:57:07.072Z,11.27
2022-11-07T10:59:40.035Z,8.27
2022-11-07T11:02:24.344Z,7.03
2022-11-07T11:04:58.233Z,7.27
2022-11-07T11:07:41.265Z,6.47
2022-11-07T11:10:22.947Z,7.03
2022-11-07T11:12:53.821Z,8.13
2022-11-07T11:15:32.736Z,5.57
2022-11-07T11:18:08.537Z,5.53
2022-11-07T11:20:42.829Z,4.70
2022-11-07T11:23:24.822Z,5.10
2022-11-07T11:26:02.173Z,3.50
2022-11-07T11:28:38.508Z,6.97
2022-11-07T11:31:15.615Z,4.87
2022-11-07T11:33:51.198Z,6.63
2022-11-07T11:36:26.622Z,6.57
2022-11-07T11:38:59.799Z,5.33
2022-11-07T11:41:44.345Z,7.63
2022-11-07T11:44:23.474Z,6.20
2022-11-07T11:47:04.973Z,4.23
2022-11-07T11:49:42.553Z,4.13
2022-11-07T11:52:20.414Z,4.23
2022-11-07T11:54:55.441Z,4.77
2022-11-07T11:57:32.942Z,5.00
2022-11-07T12:00:15.121Z,9.57
2022-11-07T12:03:22.799Z,5.60
2022-11-07T12:06:16.943Z,6.10
2022-11-07T12:09:19.687Z,3.57
2022-11-07T12:12:21.892Z,5.17
2022-11-07T12:15:24.659Z,4.40
2022-11-07T12:18:05.546Z,7.00
2022-11-07T12:20:48.266Z,3.97
2022-11-07T12:23:34.557Z,4.57
2022-11-07T12:26:08.892Z,12.87
2022-11-07T12:28:55.683Z,3.93
2022-11-07T12:31:52.611Z,6.80
2022-11-07T12:34:38.159Z,5.77
2022-11-07T12:37:31.246Z,4.57
2022-11-07T12:40:25.352Z,6.90
2022-11-07T12:43:12.585Z,4.90
2022-11-07T12:45:56.461Z,6.53
2022-11-07T12:49:02.967Z,3.03
2022-11-07T12:51:49.781Z,7.43
2022-11-07T12:54:48.407Z,5.27
2022-11-07T12:57:25.268Z,3.80
2022-11-07T13:00:05.328Z,5.07
2022-11-07T13:03:21.438Z,5.80
2022-11-07T13:06:05.981Z,4.57
2022-11-07T13:08:44.013Z,4.13
2022-11-07T13:11:23.791Z,6.53
2022-11-07T13:14:11.412Z,4.37
2022-11-07T13:16:54.991Z,4.90
2022-11-07T13:19:33.609Z,7.93
2022-11-07T13:22:08.017Z,4.13
2022-11-07T13:24:52.799Z,4.87
2022-11-07T13:27:26.840Z,11.10
2022-11-07T13:29:56.906Z,4.20
2022-11-07T13:32:27.433Z,5.73
2022-11-07T13:35:03.690Z,5.17
2022-11-07T13:46:50.323Z,4.20
2022-11-07T13:49:28.106Z,4.60
2022-11-07T13:52:10.276Z,5.73
2022-11-07T13:54:50.795Z,3.47
2022-11-07T13:57:28.670Z,3.70
2022-11-07T14:00:05.226Z,4.67
2022-11-07T14:02:52.261Z,5.23
2022-11-07T14:05:27.179Z,3.10
2022-11-07T14:08:06.913Z,4.43
2022-11-07T14:10:46.430Z,6.90
2022-11-07T14:13:24.339Z,5.27
2022-11-07T14:15:58.171Z,5.40
2022-11-07T14:18:31.705Z,7.30
2022-11-07T14:21:04.207Z,9.53
2022-11-07T14:23:36.845Z,9.67
2022-11-07T14:26:20.920Z,5.23
2022-11-07T14:28:51.859Z,7.40
2022-11-07T14:31:29.417Z,9.43
2022-11-07T14:34:03.700Z,4.97
2022-11-07T14:36:35.251Z,8.30
2022-11-07T14:39:15.383Z,4.33
2022-11-07T14:41:48.225Z,6.57
2022-11-07T14:44:28.525Z,14.30
2022-11-07T14:47:08.555Z,12.63
2022-11-07T14:49:44.509Z,12.03
2022-11-07T14:52:23.363Z,7.20
2022-11-07T14:55:05.878Z,6.00
2022-11-07T14:57:41.020Z,9.00
2022-11-07T15:00:18.279Z,9.60
2022-11-07T15:02:52.425Z,7.20
2022-11-07T15:05:29.267Z,5.30
2022-11-07T15:08:02.595Z,10.80
2022-11-07T15:10:41.284Z,5.47
2022-11-07T15:13:28.028Z,5.80
2022-11-07T15:16:06.729Z,7.60
2022-11-07T15:18:44.219Z,5.10
2022-11-07T15:21:29.856Z,3.70
2022-11-07T15:24:00.542Z,5.87
2022-11-07T15:26:37.224Z,4.73
2022-11-07T15:29:23.520Z,5.20
2022-11-07T15:31:53.699Z,7.90
2022-11-07T15:34:52.550Z,13.33
2022-11-07T15:37:23.485Z,19.80
2022-11-07T15:39:53.794Z,13.57
2022-11-07T15:42:26.432Z,20.17
2022-11-07T15:44:56.572Z,13.60
2022-11-07T15:47:26.608Z,8.50
2022-11-07T15:49:56.672Z,13.40
2022-11-07T15:52:26.696Z,10.67
2022-11-07T15:54:56.717Z,23.50
2022-11-07T15:57:29.454Z,22.53
2022-11-07T15:59:59.575Z,22.27
2022-11-07T16:02:30.153Z,27.53
2022-11-07T16:05:00.308Z,16.93
2022-11-07T16:07:30.327Z,11.67
2022-11-07T16:10:00.365Z,7.60
2022-11-07T16:12:32.935Z,11.03
2022-11-07T16:15:03.580Z,16.43
2022-11-07T16:17:34.625Z,10.63
2022-11-07T16:20:04.666Z,10.63
2022-11-07T16:22:34.783Z,14.53
2022-11-07T16:25:10.103Z,9.20
2022-11-07T16:27:52.581Z,12.23
2022-11-07T16:30:23.688Z,8.93
2022-11-07T16:32:53.761Z,11.40
2022-11-07T16:35:24.080Z,12.03
2022-11-07T16:37:54.209Z,7.53
2022-11-07T16:40:24.439Z,9.33
2022-11-07T16:42:57.061Z,14.50
2022-11-07T16:45:27.122Z,11.80
2022-11-07T16:47:57.139Z,11.77
2022-11-07T16:50:27.144Z,10.43
2022-11-07T16:52:57.279Z,11.83
2022-11-07T16:55:27.296Z,11.53
2022-11-07T16:58:00.619Z,9.37
2022-11-07T17:00:30.986Z,10.53
2022-11-07T17:03:01.120Z,10.00
2022-11-07T17:05:31.343Z,16.47
2022-11-07T17:08:03.835Z,9.37
2022-11-07T17:10:33.898Z,13.10
2022-11-07T17:13:06.624Z,13.00
2022-11-07T17:15:36.733Z,20.77
2022-11-07T17:18:08.417Z,14.93
2022-11-07T17:20:50.893Z,15.77
2022-11-07T17:23:25.476Z,12.83
2022-11-07T17:25:59.716Z,12.33
2022-11-07T17:28:32.618Z,18.97
2022-11-07T17:31:02.752Z,23.77
2022-11-07T17:33:32.862Z,13.83
2022-11-07T17:36:03.081Z,20.10
2022-11-07T17:38:33.134Z,12.37
2022-11-07T17:41:17.260Z,9.17
2022-11-07T17:43:51.670Z,12.00
2022-11-07T17:46:26.263Z,16.80
2022-11-07T17:48:57.577Z,13.23
2022-11-07T17:51:28.607Z,15.10
2022-11-07T17:54:00.957Z,22.93
2022-11-07T17:56:33.861Z,17.77
2022-11-07T17:59:09.983Z,18.03
2022-11-07T18:01:41.980Z,11.80
2022-11-07T18:04:14.713Z,18.63
2022-11-07T18:06:46.317Z,12.83
2022-11-07T18:09:18.369Z,23.17
2022-11-07T18:11:48.541Z,14.77
2022-11-07T18:14:21.122Z,27.20
2022-11-07T18:16:51.467Z,24.07
2022-11-07T18:19:21.502Z,19.10
2022-11-07T18:21:51.555Z,14.07
2022-11-07T18:24:22.246Z,17.60
2022-11-07T18:26:53.877Z,17.03
2022-11-07T18:29:26.702Z,32.37
2022-11-07T18:31:56.750Z,37.60
2022-11-07T18:34:26.823Z,31.47
2022-11-07T18:36:57.101Z,29.73
2022-11-07T18:39:27.200Z,31.60
2022-11-07T18:41:57.327Z,22.77
2022-11-07T18:44:30.130Z,26.63
2022-11-07T18:47:00.100Z,33.07
2022-11-07T18:49:30.205Z,32.20
2022-11-07T18:52:00.490Z,33.17
2022-11-07T18:54:30.649Z,30.63
2022-11-07T18:57:00.746Z,26.50
2022-11-07T18:59:34.330Z,26.90
2022-11-07T19:02:04.759Z,26.50
2022-11-07T19:04:34.888Z,25.10
2022-11-07T19:07:05.003Z,22.83
2022-11-07T19:09:37.035Z,33.63
2022-11-07T19:12:07.653Z,34.83
2022-11-07T19:14:40.374Z,44.33
2022-11-07T19:17:10.547Z,43.00
2022-11-07T19:19:40.822Z,41.17
2022-11-07T19:22:12.563Z,29.13
2022-11-07T19:24:42.808Z,40.00
2022-11-07T19:27:12.873Z,30.40
2022-11-07T19:29:45.535Z,31.10
2022-11-07T19:32:15.843Z,45.27
2022-11-07T19:34:45.878Z,26.93
2022-11-07T19:37:15.921Z,25.87
2022-11-07T19:39:46.072Z,22.93
2022-11-07T19:42:16.223Z,18.73
2022-11-07T19:44:54.048Z,17.97
2022-11-07T19:47:26.642Z,25.47
2022-11-07T19:49:56.729Z,35.10
2022-11-07T19:52:26.800Z,30.43
2022-11-07T19:54:56.851Z,31.27
2022-11-07T19:57:27.145Z,30.03
2022-11-07T19:59:59.789Z,23.60
2022-11-07T20:02:33.604Z,29.50
2022-11-07T20:05:04.940Z,30.20
2022-11-07T20:07:35.898Z,33.73
2022-11-07T20:10:06.258Z,23.97
2022-11-07T20:12:36.443Z,33.27
2022-11-07T20:15:11.200Z,23.70
2022-11-07T20:17:42.607Z,25.30
2022-11-07T20:20:14.789Z,31.07
2022-11-07T20:22:49.208Z,20.73
2022-11-07T20:25:19.410Z,24.27
2022-11-07T20:27:49.437Z,21.93
2022-11-07T20:30:22.326Z,28.73
2022-11-07T20:32:52.464Z,18.70
2022-11-07T20:35:22.610Z,20.87
2022-11-07T20:37:52.832Z,20.70
2022-11-07T20:40:29.015Z,23.97
2022-11-07T20:43:00.543Z,29.87
2022-11-07T20:45:33.197Z,26.33
2022-11-07T20:48:03.540Z,31.80
2022-11-07T20:50:35.531Z,22.87
2022-11-07T20:53:05.927Z,26.07
2022-11-07T20:55:42.659Z,24.83
2022-11-07T20:58:13.628Z,29.67
2022-11-07T21:00:47.203Z,31.63
2022-11-07T21:03:18.591Z,23.57
2022-11-07T21:05:48.943Z,25.90
2022-11-07T21:08:19.131Z,24.60
2022-11-07T21:10:52.653Z,28.20
2022-11-07T21:13:23.037Z,25.97
2022-11-07T21:15:55.805Z,33.50
2022-11-07T21:18:26.061Z,31.50
2022-11-07T21:20:56.825Z,31.87
2022-11-07T21:23:27.023Z,34.00
2022-11-07T21:25:58.533Z,26.07
2022-11-07T21:28:29.003Z,40.47
2022-11-07T21:31:07.651Z,24.03
2022-11-07T21:33:37.722Z,21.80
2022-11-07T21:36:13.311Z,27.27
2022-11-07T21:38:44.847Z,26.40
2022-11-07T21:41:16.216Z,29.67
2022-11-07T21:43:46.916Z,31.67
2022-11-07T21:46:23.368Z,25.53
2022-11-07T21:48:54.456Z,30.10
2022-11-07T21:51:26.537Z,28.93
2022-11-07T21:53:57.998Z,30.20
2022-11-07T21:56:31.201Z,28.90
2022-11-07T21:59:04.253Z,27.30
2022-11-07T22:01:38.968Z,26.37
2022-11-07T22:04:12.956Z,23.13
2022-11-07T22:06:46.368Z,23.23
2022-11-07T22:09:19.854Z,24.00
2022-11-07T22:11:50.088Z,23.00
2022-11-07T22:14:23.045Z,29.90
2022-11-07T22:16:58.613Z,32.20
2022-11-07T22:19:29.466Z,32.97
2022-11-07T22:21:59.552Z,31.53
2022-11-07T22:24:29.917Z,23.57
2022-11-07T22:27:01.261Z,23.80
2022-11-07T22:29:32.177Z,31.33
2022-11-07T22:32:05.160Z,27.03
2022-11-07T22:34:35.157Z,26.47
2022-11-07T22:37:05.211Z,28.20
2022-11-07T22:39:35.208Z,26.80
2022-11-07T22:42:08.756Z,23.40
2022-11-07T22:44:38.796Z,21.00
2022-11-07T22:47:11.469Z,22.40
2022-11-07T22:49:42.614Z,21.10
2022-11-07T22:52:12.687Z,23.00
2022-11-07T22:54:43.153Z,24.63
2022-11-07T22:57:17.701Z,24.13
2022-11-07T22:59:48.061Z,25.63
2022-11-07T23:02:20.802Z,22.27
2022-11-07T23:04:51.427Z,23.10
2022-11-07T23:07:21.455Z,24.47
2022-11-07T23:09:53.508Z,21.97
2022-11-07T23:12:25.455Z,21.83
2022-11-07T23:14:58.042Z,22.00
2022-11-07T23:17:30.878Z,25.17
2022-11-07T23:20:00.880Z,19.77
2022-11-07T23:22:32.454Z,22.93
2022-11-07T23:25:02.956Z,21.00
2022-11-07T23:27:33.145Z,19.83
2022-11-07T23:30:03.136Z,19.70
2022-11-07T23:32:35.752Z,27.03
2022-11-07T23:35:05.790Z,24.57
2022-11-07T23:37:35.855Z,22.80
2022-11-07T23:40:06.288Z,28.13
2022-11-07T23:42:36.335Z,23.33
2022-11-07T23:45:19.410Z,20.40
2022-11-07T23:48:04.493Z,27.00
2022-11-07T23:50:47.007Z,21.70
2022-11-07T23:53:29.281Z,23.43
2022-11-07T23:55:59.291Z,24.53
2022-11-07T23:58:53.862Z,27.60
